<?xml version="1.0" encoding="utf-8"?>
<gpx xmlns:xsi="http://www.w3.org/2001/XMLSchema-instance" xmlns:xsd="http://www.w3.org/2001/XMLSchema" version="1.1" creator="Shapelink.com" xmlns="http://www.topografix.com/GPX/1/1" xmlns:gpxtpx="http://www.garmin.com/xmlschemas/TrackPointExtension/v1">
  <metadata>
    <name>Löpning 8.05 km, 2017-12-27</name>
    <desc></desc>
    <author><name>Bengt-Åke Forslund</name></author> 
    <time>2017-12-27T10:25:49Z</time>
  </metadata>
  <trk>
    <name>Löpning 8.05 km, 2017-12-27</name>
    <trkseg>
      <trkpt lat="59.8483925" lon="17.6002738">
        <ele>36.1868</ele>
        <time>2017-12-27T10:25:49Z</time>
      </trkpt>
      <trkpt lat="59.8484122" lon="17.5999501">
        <ele>34.7449</ele>
        <time>2017-12-27T10:25:56Z</time>
      </trkpt>
      <trkpt lat="59.8484163" lon="17.5997293">
        <ele>35.2255</ele>
        <time>2017-12-27T10:26:01Z</time>
      </trkpt>
      <trkpt lat="59.8484209" lon="17.5994595">
        <ele>34.7449</ele>
        <time>2017-12-27T10:26:07Z</time>
      </trkpt>
      <trkpt lat="59.8484297" lon="17.5991467">
        <ele>31.8607</ele>
        <time>2017-12-27T10:26:14Z</time>
      </trkpt>
      <trkpt lat="59.8484266" lon="17.5988565">
        <ele>32.3416</ele>
        <time>2017-12-27T10:26:21Z</time>
      </trkpt>
      <trkpt lat="59.8484618" lon="17.598608">
        <ele>35.2255</ele>
        <time>2017-12-27T10:26:26Z</time>
      </trkpt>
      <trkpt lat="59.8484549" lon="17.5984746">
        <ele>36.1868</ele>
        <time>2017-12-27T10:26:29Z</time>
      </trkpt>
      <trkpt lat="59.8484602" lon="17.5982712">
        <ele>34.7449</ele>
        <time>2017-12-27T10:26:35Z</time>
      </trkpt>
      <trkpt lat="59.8484666" lon="17.5982401">
        <ele>34.7449</ele>
        <time>2017-12-27T10:26:36Z</time>
      </trkpt>
      <trkpt lat="59.8485099" lon="17.5980534">
        <ele>35.2255</ele>
        <time>2017-12-27T10:26:41Z</time>
      </trkpt>
      <trkpt lat="59.8485636" lon="17.5979117">
        <ele>35.7061</ele>
        <time>2017-12-27T10:26:46Z</time>
      </trkpt>
      <trkpt lat="59.848561" lon="17.597668">
        <ele>34.7449</ele>
        <time>2017-12-27T10:26:52Z</time>
      </trkpt>
      <trkpt lat="59.8485067" lon="17.5974069">
        <ele>35.7061</ele>
        <time>2017-12-27T10:26:58Z</time>
      </trkpt>
      <trkpt lat="59.8484783" lon="17.5972643">
        <ele>35.2255</ele>
        <time>2017-12-27T10:27:02Z</time>
      </trkpt>
      <trkpt lat="59.8484337" lon="17.5970757">
        <ele>37.6287</ele>
        <time>2017-12-27T10:27:07Z</time>
      </trkpt>
      <trkpt lat="59.8483602" lon="17.5968979">
        <ele>40.9934</ele>
        <time>2017-12-27T10:27:12Z</time>
      </trkpt>
      <trkpt lat="59.8483892" lon="17.5966532">
        <ele>40.0321</ele>
        <time>2017-12-27T10:27:17Z</time>
      </trkpt>
      <trkpt lat="59.8484046" lon="17.5965172">
        <ele>40.0321</ele>
        <time>2017-12-27T10:27:20Z</time>
      </trkpt>
      <trkpt lat="59.8484432" lon="17.5961992">
        <ele>40.0321</ele>
        <time>2017-12-27T10:27:27Z</time>
      </trkpt>
      <trkpt lat="59.8484445" lon="17.5959992">
        <ele>40.9934</ele>
        <time>2017-12-27T10:27:32Z</time>
      </trkpt>
      <trkpt lat="59.8484224" lon="17.5957909">
        <ele>42.4354</ele>
        <time>2017-12-27T10:27:37Z</time>
      </trkpt>
      <trkpt lat="59.8483811" lon="17.5955708">
        <ele>44.8386</ele>
        <time>2017-12-27T10:27:42Z</time>
      </trkpt>
      <trkpt lat="59.848381" lon="17.5953714">
        <ele>45.7999</ele>
        <time>2017-12-27T10:27:47Z</time>
      </trkpt>
      <trkpt lat="59.8484243" lon="17.5951161">
        <ele>44.358</ele>
        <time>2017-12-27T10:27:53Z</time>
      </trkpt>
      <trkpt lat="59.8484815" lon="17.5948238">
        <ele>42.4354</ele>
        <time>2017-12-27T10:27:59Z</time>
      </trkpt>
      <trkpt lat="59.8485507" lon="17.5946171">
        <ele>40.0321</ele>
        <time>2017-12-27T10:28:04Z</time>
      </trkpt>
      <trkpt lat="59.8485706" lon="17.5945279">
        <ele>39.0707</ele>
        <time>2017-12-27T10:28:06Z</time>
      </trkpt>
      <trkpt lat="59.8485917" lon="17.5941955">
        <ele>41.9547</ele>
        <time>2017-12-27T10:28:13Z</time>
      </trkpt>
      <trkpt lat="59.8486307" lon="17.5939793">
        <ele>40.9934</ele>
        <time>2017-12-27T10:28:18Z</time>
      </trkpt>
      <trkpt lat="59.848682" lon="17.5938039">
        <ele>39.0707</ele>
        <time>2017-12-27T10:28:24Z</time>
      </trkpt>
      <trkpt lat="59.8487871" lon="17.5936149">
        <ele>40.5128</ele>
        <time>2017-12-27T10:28:31Z</time>
      </trkpt>
      <trkpt lat="59.8488213" lon="17.5934331">
        <ele>43.8773</ele>
        <time>2017-12-27T10:28:36Z</time>
      </trkpt>
      <trkpt lat="59.848842" lon="17.5933035">
        <ele>47.2418</ele>
        <time>2017-12-27T10:28:39Z</time>
      </trkpt>
      <trkpt lat="59.8489093" lon="17.5931382">
        <ele>45.7999</ele>
        <time>2017-12-27T10:28:43Z</time>
      </trkpt>
      <trkpt lat="59.8489433" lon="17.5929465">
        <ele>44.8386</ele>
        <time>2017-12-27T10:28:47Z</time>
      </trkpt>
      <trkpt lat="59.8489865" lon="17.5926663">
        <ele>38.5901</ele>
        <time>2017-12-27T10:28:53Z</time>
      </trkpt>
      <trkpt lat="59.8489389" lon="17.5924737">
        <ele>36.6675</ele>
        <time>2017-12-27T10:28:58Z</time>
      </trkpt>
      <trkpt lat="59.848843" lon="17.5923025">
        <ele>34.7449</ele>
        <time>2017-12-27T10:29:04Z</time>
      </trkpt>
      <trkpt lat="59.8488232" lon="17.5922786">
        <ele>34.7449</ele>
        <time>2017-12-27T10:29:05Z</time>
      </trkpt>
      <trkpt lat="59.8487206" lon="17.5921011">
        <ele>33.7834</ele>
        <time>2017-12-27T10:29:11Z</time>
      </trkpt>
      <trkpt lat="59.8486902" lon="17.5920384">
        <ele>34.2642</ele>
        <time>2017-12-27T10:29:13Z</time>
      </trkpt>
      <trkpt lat="59.8486695" lon="17.5917935">
        <ele>33.3029</ele>
        <time>2017-12-27T10:29:19Z</time>
      </trkpt>
      <trkpt lat="59.8486686" lon="17.5915325">
        <ele>32.3416</ele>
        <time>2017-12-27T10:29:25Z</time>
      </trkpt>
      <trkpt lat="59.8486569" lon="17.5912064">
        <ele>32.3416</ele>
        <time>2017-12-27T10:29:32Z</time>
      </trkpt>
      <trkpt lat="59.8486264" lon="17.5909712">
        <ele>32.3416</ele>
        <time>2017-12-27T10:29:37Z</time>
      </trkpt>
      <trkpt lat="59.8486276" lon="17.5906725">
        <ele>32.3416</ele>
        <time>2017-12-27T10:29:43Z</time>
      </trkpt>
      <trkpt lat="59.8486348" lon="17.5905091">
        <ele>32.8223</ele>
        <time>2017-12-27T10:29:46Z</time>
      </trkpt>
      <trkpt lat="59.8486032" lon="17.5902301">
        <ele>32.8223</ele>
        <time>2017-12-27T10:29:52Z</time>
      </trkpt>
      <trkpt lat="59.8485755" lon="17.5899634">
        <ele>32.8223</ele>
        <time>2017-12-27T10:29:58Z</time>
      </trkpt>
      <trkpt lat="59.8486098" lon="17.5897494">
        <ele>31.8607</ele>
        <time>2017-12-27T10:30:03Z</time>
      </trkpt>
      <trkpt lat="59.8487007" lon="17.5895154">
        <ele>30.4188</ele>
        <time>2017-12-27T10:30:09Z</time>
      </trkpt>
      <trkpt lat="59.8487726" lon="17.589264">
        <ele>28.9769</ele>
        <time>2017-12-27T10:30:15Z</time>
      </trkpt>
      <trkpt lat="59.8488213" lon="17.5889697">
        <ele>28.4962</ele>
        <time>2017-12-27T10:30:21Z</time>
      </trkpt>
      <trkpt lat="59.8488533" lon="17.5887263">
        <ele>28.0155</ele>
        <time>2017-12-27T10:30:26Z</time>
      </trkpt>
      <trkpt lat="59.8488912" lon="17.5884875">
        <ele>27.0543</ele>
        <time>2017-12-27T10:30:31Z</time>
      </trkpt>
      <trkpt lat="59.8489086" lon="17.5883625">
        <ele>26.5736</ele>
        <time>2017-12-27T10:30:34Z</time>
      </trkpt>
      <trkpt lat="59.848858" lon="17.5883096">
        <ele>26.0929</ele>
        <time>2017-12-27T10:30:38Z</time>
      </trkpt>
      <trkpt lat="59.8487814" lon="17.5883989">
        <ele>25.6123</ele>
        <time>2017-12-27T10:30:42Z</time>
      </trkpt>
      <trkpt lat="59.8487413" lon="17.5884321">
        <ele>25.6123</ele>
        <time>2017-12-27T10:30:44Z</time>
      </trkpt>
      <trkpt lat="59.8487674" lon="17.5883746">
        <ele>25.1317</ele>
        <time>2017-12-27T10:30:49Z</time>
      </trkpt>
      <trkpt lat="59.848766" lon="17.5883771">
        <ele>25.1317</ele>
        <time>2017-12-27T10:30:50Z</time>
      </trkpt>
      <trkpt lat="59.8487556" lon="17.5883936">
        <ele>25.6123</ele>
        <time>2017-12-27T10:30:53Z</time>
      </trkpt>
      <trkpt lat="59.8486292" lon="17.5885694">
        <ele>27.0543</ele>
        <time>2017-12-27T10:30:58Z</time>
      </trkpt>
      <trkpt lat="59.8485054" lon="17.5887651">
        <ele>28.0155</ele>
        <time>2017-12-27T10:31:05Z</time>
      </trkpt>
      <trkpt lat="59.8484258" lon="17.5890531">
        <ele>29.4575</ele>
        <time>2017-12-27T10:31:12Z</time>
      </trkpt>
      <trkpt lat="59.8483561" lon="17.5892599">
        <ele>30.4188</ele>
        <time>2017-12-27T10:31:18Z</time>
      </trkpt>
      <trkpt lat="59.8482479" lon="17.5893622">
        <ele>27.5349</ele>
        <time>2017-12-27T10:31:23Z</time>
      </trkpt>
      <trkpt lat="59.8482038" lon="17.5893959">
        <ele>27.5349</ele>
        <time>2017-12-27T10:31:25Z</time>
      </trkpt>
      <trkpt lat="59.8479905" lon="17.5894174">
        <ele>25.1317</ele>
        <time>2017-12-27T10:31:34Z</time>
      </trkpt>
      <trkpt lat="59.8478398" lon="17.5894553">
        <ele>24.1703</ele>
        <time>2017-12-27T10:31:40Z</time>
      </trkpt>
      <trkpt lat="59.847703" lon="17.5895206">
        <ele>23.6896</ele>
        <time>2017-12-27T10:31:46Z</time>
      </trkpt>
      <trkpt lat="59.8475701" lon="17.5895768">
        <ele>22.7283</ele>
        <time>2017-12-27T10:31:52Z</time>
      </trkpt>
      <trkpt lat="59.8474227" lon="17.5896588">
        <ele>22.2476</ele>
        <time>2017-12-27T10:31:59Z</time>
      </trkpt>
      <trkpt lat="59.8472839" lon="17.5897026">
        <ele>23.209</ele>
        <time>2017-12-27T10:32:06Z</time>
      </trkpt>
      <trkpt lat="59.847198" lon="17.5897515">
        <ele>23.6896</ele>
        <time>2017-12-27T10:32:10Z</time>
      </trkpt>
      <trkpt lat="59.8470968" lon="17.5898186">
        <ele>23.6896</ele>
        <time>2017-12-27T10:32:14Z</time>
      </trkpt>
      <trkpt lat="59.8470021" lon="17.5898654">
        <ele>23.209</ele>
        <time>2017-12-27T10:32:18Z</time>
      </trkpt>
      <trkpt lat="59.8468798" lon="17.5899639">
        <ele>22.7283</ele>
        <time>2017-12-27T10:32:24Z</time>
      </trkpt>
      <trkpt lat="59.8468439" lon="17.5900151">
        <ele>22.7283</ele>
        <time>2017-12-27T10:32:26Z</time>
      </trkpt>
      <trkpt lat="59.8467046" lon="17.5902452">
        <ele>21.767</ele>
        <time>2017-12-27T10:32:34Z</time>
      </trkpt>
      <trkpt lat="59.8466087" lon="17.5903915">
        <ele>22.2476</ele>
        <time>2017-12-27T10:32:39Z</time>
      </trkpt>
      <trkpt lat="59.8464674" lon="17.5905091">
        <ele>22.2476</ele>
        <time>2017-12-27T10:32:45Z</time>
      </trkpt>
      <trkpt lat="59.8464142" lon="17.5905466">
        <ele>21.767</ele>
        <time>2017-12-27T10:32:47Z</time>
      </trkpt>
      <trkpt lat="59.8462976" lon="17.5905674">
        <ele>21.767</ele>
        <time>2017-12-27T10:32:52Z</time>
      </trkpt>
      <trkpt lat="59.846196" lon="17.5906514">
        <ele>20.8057</ele>
        <time>2017-12-27T10:32:56Z</time>
      </trkpt>
      <trkpt lat="59.8460826" lon="17.5907969">
        <ele>19.3638</ele>
        <time>2017-12-27T10:33:02Z</time>
      </trkpt>
      <trkpt lat="59.8459459" lon="17.5910014">
        <ele>19.3638</ele>
        <time>2017-12-27T10:33:10Z</time>
      </trkpt>
      <trkpt lat="59.8458188" lon="17.5911097">
        <ele>19.8444</ele>
        <time>2017-12-27T10:33:16Z</time>
      </trkpt>
      <trkpt lat="59.845697" lon="17.5912154">
        <ele>19.8444</ele>
        <time>2017-12-27T10:33:22Z</time>
      </trkpt>
      <trkpt lat="59.8455457" lon="17.5913346">
        <ele>18.4023</ele>
        <time>2017-12-27T10:33:29Z</time>
      </trkpt>
      <trkpt lat="59.8453894" lon="17.5914723">
        <ele>16.9604</ele>
        <time>2017-12-27T10:33:36Z</time>
      </trkpt>
      <trkpt lat="59.8452386" lon="17.5916085">
        <ele>15.999</ele>
        <time>2017-12-27T10:33:43Z</time>
      </trkpt>
      <trkpt lat="59.8450665" lon="17.5917661">
        <ele>16.9604</ele>
        <time>2017-12-27T10:33:51Z</time>
      </trkpt>
      <trkpt lat="59.8449133" lon="17.5918903">
        <ele>16.9604</ele>
        <time>2017-12-27T10:33:58Z</time>
      </trkpt>
      <trkpt lat="59.8448176" lon="17.5919701">
        <ele>16.4797</ele>
        <time>2017-12-27T10:34:02Z</time>
      </trkpt>
      <trkpt lat="59.8446658" lon="17.5920904">
        <ele>16.9604</ele>
        <time>2017-12-27T10:34:09Z</time>
      </trkpt>
      <trkpt lat="59.8445097" lon="17.5922201">
        <ele>17.4412</ele>
        <time>2017-12-27T10:34:16Z</time>
      </trkpt>
      <trkpt lat="59.8443565" lon="17.5923471">
        <ele>16.9604</ele>
        <time>2017-12-27T10:34:23Z</time>
      </trkpt>
      <trkpt lat="59.8442009" lon="17.5924674">
        <ele>16.9604</ele>
        <time>2017-12-27T10:34:30Z</time>
      </trkpt>
      <trkpt lat="59.8440477" lon="17.5925933">
        <ele>16.9604</ele>
        <time>2017-12-27T10:34:37Z</time>
      </trkpt>
      <trkpt lat="59.8438492" lon="17.5927559">
        <ele>16.9604</ele>
        <time>2017-12-27T10:34:46Z</time>
      </trkpt>
      <trkpt lat="59.8437042" lon="17.5928963">
        <ele>16.9604</ele>
        <time>2017-12-27T10:34:53Z</time>
      </trkpt>
      <trkpt lat="59.8435428" lon="17.5930239">
        <ele>15.5184</ele>
        <time>2017-12-27T10:35:00Z</time>
      </trkpt>
      <trkpt lat="59.8433977" lon="17.5931739">
        <ele>15.5184</ele>
        <time>2017-12-27T10:35:07Z</time>
      </trkpt>
      <trkpt lat="59.8432864" lon="17.5933727">
        <ele>16.4797</ele>
        <time>2017-12-27T10:35:14Z</time>
      </trkpt>
      <trkpt lat="59.843215" lon="17.5936589">
        <ele>16.4797</ele>
        <time>2017-12-27T10:35:21Z</time>
      </trkpt>
      <trkpt lat="59.8431414" lon="17.5939899">
        <ele>15.0377</ele>
        <time>2017-12-27T10:35:29Z</time>
      </trkpt>
      <trkpt lat="59.8430621" lon="17.5943336">
        <ele>14.557</ele>
        <time>2017-12-27T10:35:37Z</time>
      </trkpt>
      <trkpt lat="59.8429916" lon="17.5946306">
        <ele>15.5184</ele>
        <time>2017-12-27T10:35:44Z</time>
      </trkpt>
      <trkpt lat="59.842915" lon="17.5949652">
        <ele>15.999</ele>
        <time>2017-12-27T10:35:52Z</time>
      </trkpt>
      <trkpt lat="59.8428667" lon="17.5951756">
        <ele>16.4797</ele>
        <time>2017-12-27T10:35:57Z</time>
      </trkpt>
      <trkpt lat="59.8428114" lon="17.5953775">
        <ele>17.4412</ele>
        <time>2017-12-27T10:36:02Z</time>
      </trkpt>
      <trkpt lat="59.842727" lon="17.5955766">
        <ele>19.3638</ele>
        <time>2017-12-27T10:36:08Z</time>
      </trkpt>
      <trkpt lat="59.8426341" lon="17.5956996">
        <ele>20.325</ele>
        <time>2017-12-27T10:36:13Z</time>
      </trkpt>
      <trkpt lat="59.8426286" lon="17.5959579">
        <ele>20.8057</ele>
        <time>2017-12-27T10:36:19Z</time>
      </trkpt>
      <trkpt lat="59.8426715" lon="17.5962179">
        <ele>19.8444</ele>
        <time>2017-12-27T10:36:25Z</time>
      </trkpt>
      <trkpt lat="59.842697" lon="17.5964186">
        <ele>19.8444</ele>
        <time>2017-12-27T10:36:30Z</time>
      </trkpt>
      <trkpt lat="59.8427211" lon="17.5966374">
        <ele>20.325</ele>
        <time>2017-12-27T10:36:36Z</time>
      </trkpt>
      <trkpt lat="59.8427255" lon="17.5968487">
        <ele>21.767</ele>
        <time>2017-12-27T10:36:42Z</time>
      </trkpt>
      <trkpt lat="59.8427527" lon="17.5970733">
        <ele>22.2476</ele>
        <time>2017-12-27T10:36:48Z</time>
      </trkpt>
      <trkpt lat="59.8427641" lon="17.5971617">
        <ele>22.2476</ele>
        <time>2017-12-27T10:36:51Z</time>
      </trkpt>
      <trkpt lat="59.8427683" lon="17.5973258">
        <ele>22.7283</ele>
        <time>2017-12-27T10:36:56Z</time>
      </trkpt>
      <trkpt lat="59.8427417" lon="17.5974613">
        <ele>21.767</ele>
        <time>2017-12-27T10:37:00Z</time>
      </trkpt>
      <trkpt lat="59.8427005" lon="17.5977444">
        <ele>19.8444</ele>
        <time>2017-12-27T10:37:07Z</time>
      </trkpt>
      <trkpt lat="59.8426558" lon="17.5980257">
        <ele>17.9218</ele>
        <time>2017-12-27T10:37:14Z</time>
      </trkpt>
      <trkpt lat="59.842604" lon="17.5982447">
        <ele>18.4023</ele>
        <time>2017-12-27T10:37:20Z</time>
      </trkpt>
      <trkpt lat="59.8425418" lon="17.5985466">
        <ele>18.4023</ele>
        <time>2017-12-27T10:37:28Z</time>
      </trkpt>
      <trkpt lat="59.8425081" lon="17.598738">
        <ele>18.8831</ele>
        <time>2017-12-27T10:37:33Z</time>
      </trkpt>
      <trkpt lat="59.8424678" lon="17.5989036">
        <ele>19.8444</ele>
        <time>2017-12-27T10:37:38Z</time>
      </trkpt>
      <trkpt lat="59.8424202" lon="17.5990047">
        <ele>21.2864</ele>
        <time>2017-12-27T10:37:42Z</time>
      </trkpt>
      <trkpt lat="59.8423436" lon="17.5991078">
        <ele>22.2476</ele>
        <time>2017-12-27T10:37:46Z</time>
      </trkpt>
      <trkpt lat="59.8422053" lon="17.5992645">
        <ele>24.651</ele>
        <time>2017-12-27T10:37:54Z</time>
      </trkpt>
      <trkpt lat="59.8421139" lon="17.5994067">
        <ele>31.3801</ele>
        <time>2017-12-27T10:38:00Z</time>
      </trkpt>
      <trkpt lat="59.8420429" lon="17.5995313">
        <ele>33.7834</ele>
        <time>2017-12-27T10:38:05Z</time>
      </trkpt>
      <trkpt lat="59.8419753" lon="17.5996987">
        <ele>38.1094</ele>
        <time>2017-12-27T10:38:10Z</time>
      </trkpt>
      <trkpt lat="59.841881" lon="17.5998688">
        <ele>37.1481</ele>
        <time>2017-12-27T10:38:16Z</time>
      </trkpt>
      <trkpt lat="59.8417784" lon="17.6000695">
        <ele>35.2255</ele>
        <time>2017-12-27T10:38:22Z</time>
      </trkpt>
      <trkpt lat="59.8416982" lon="17.6002236">
        <ele>37.1481</ele>
        <time>2017-12-27T10:38:27Z</time>
      </trkpt>
      <trkpt lat="59.8416418" lon="17.6004316">
        <ele>43.8773</ele>
        <time>2017-12-27T10:38:33Z</time>
      </trkpt>
      <trkpt lat="59.8415635" lon="17.6006933">
        <ele>49.6453</ele>
        <time>2017-12-27T10:38:40Z</time>
      </trkpt>
      <trkpt lat="59.8414619" lon="17.600869">
        <ele>52.0486</ele>
        <time>2017-12-27T10:38:46Z</time>
      </trkpt>
      <trkpt lat="59.8413381" lon="17.6010249">
        <ele>48.2034</ele>
        <time>2017-12-27T10:38:52Z</time>
      </trkpt>
      <trkpt lat="59.8412241" lon="17.6011174">
        <ele>44.8386</ele>
        <time>2017-12-27T10:38:57Z</time>
      </trkpt>
      <trkpt lat="59.841094" lon="17.6012456">
        <ele>45.7999</ele>
        <time>2017-12-27T10:39:03Z</time>
      </trkpt>
      <trkpt lat="59.8409718" lon="17.601391">
        <ele>45.3192</ele>
        <time>2017-12-27T10:39:09Z</time>
      </trkpt>
      <trkpt lat="59.8408458" lon="17.6015203">
        <ele>39.0707</ele>
        <time>2017-12-27T10:39:15Z</time>
      </trkpt>
      <trkpt lat="59.8407601" lon="17.6015564">
        <ele>38.1094</ele>
        <time>2017-12-27T10:39:19Z</time>
      </trkpt>
      <trkpt lat="59.8407237" lon="17.6017303">
        <ele>37.1481</ele>
        <time>2017-12-27T10:39:25Z</time>
      </trkpt>
      <trkpt lat="59.8407215" lon="17.6017611">
        <ele>36.6675</ele>
        <time>2017-12-27T10:39:26Z</time>
      </trkpt>
      <trkpt lat="59.8407331" lon="17.6019278">
        <ele>34.2642</ele>
        <time>2017-12-27T10:39:31Z</time>
      </trkpt>
      <trkpt lat="59.8407256" lon="17.6021237">
        <ele>33.3029</ele>
        <time>2017-12-27T10:39:37Z</time>
      </trkpt>
      <trkpt lat="59.8407461" lon="17.602378">
        <ele>31.3801</ele>
        <time>2017-12-27T10:39:43Z</time>
      </trkpt>
      <trkpt lat="59.8407824" lon="17.602613">
        <ele>30.4188</ele>
        <time>2017-12-27T10:39:49Z</time>
      </trkpt>
      <trkpt lat="59.8408171" lon="17.6028629">
        <ele>28.9769</ele>
        <time>2017-12-27T10:39:55Z</time>
      </trkpt>
      <trkpt lat="59.8408334" lon="17.6031673">
        <ele>28.9769</ele>
        <time>2017-12-27T10:40:02Z</time>
      </trkpt>
      <trkpt lat="59.8408547" lon="17.6035057">
        <ele>28.9769</ele>
        <time>2017-12-27T10:40:10Z</time>
      </trkpt>
      <trkpt lat="59.8408703" lon="17.603757">
        <ele>29.4575</ele>
        <time>2017-12-27T10:40:16Z</time>
      </trkpt>
      <trkpt lat="59.8408983" lon="17.6040008">
        <ele>29.4575</ele>
        <time>2017-12-27T10:40:22Z</time>
      </trkpt>
      <trkpt lat="59.8409429" lon="17.6042444">
        <ele>28.4962</ele>
        <time>2017-12-27T10:40:28Z</time>
      </trkpt>
      <trkpt lat="59.8409701" lon="17.6045004">
        <ele>31.8607</ele>
        <time>2017-12-27T10:40:34Z</time>
      </trkpt>
      <trkpt lat="59.8409588" lon="17.6047269">
        <ele>36.6675</ele>
        <time>2017-12-27T10:40:39Z</time>
      </trkpt>
      <trkpt lat="59.8409366" lon="17.6048976">
        <ele>38.5901</ele>
        <time>2017-12-27T10:40:43Z</time>
      </trkpt>
      <trkpt lat="59.8409071" lon="17.6051633">
        <ele>40.0321</ele>
        <time>2017-12-27T10:40:49Z</time>
      </trkpt>
      <trkpt lat="59.8408868" lon="17.6053649">
        <ele>39.5513</ele>
        <time>2017-12-27T10:40:54Z</time>
      </trkpt>
      <trkpt lat="59.8408921" lon="17.6055819">
        <ele>39.5513</ele>
        <time>2017-12-27T10:40:59Z</time>
      </trkpt>
      <trkpt lat="59.8408971" lon="17.605826">
        <ele>38.5901</ele>
        <time>2017-12-27T10:41:05Z</time>
      </trkpt>
      <trkpt lat="59.840895" lon="17.6060394">
        <ele>39.5513</ele>
        <time>2017-12-27T10:41:10Z</time>
      </trkpt>
      <trkpt lat="59.8408953" lon="17.6060807">
        <ele>39.5513</ele>
        <time>2017-12-27T10:41:11Z</time>
      </trkpt>
      <trkpt lat="59.8408906" lon="17.6063383">
        <ele>40.5128</ele>
        <time>2017-12-27T10:41:17Z</time>
      </trkpt>
      <trkpt lat="59.8408796" lon="17.6065674">
        <ele>40.5128</ele>
        <time>2017-12-27T10:41:23Z</time>
      </trkpt>
      <trkpt lat="59.8408821" lon="17.6066048">
        <ele>40.9934</ele>
        <time>2017-12-27T10:41:24Z</time>
      </trkpt>
      <trkpt lat="59.8408924" lon="17.6068558">
        <ele>41.9547</ele>
        <time>2017-12-27T10:41:30Z</time>
      </trkpt>
      <trkpt lat="59.8408828" lon="17.6070663">
        <ele>40.9934</ele>
        <time>2017-12-27T10:41:35Z</time>
      </trkpt>
      <trkpt lat="59.84089" lon="17.6071577">
        <ele>40.5128</ele>
        <time>2017-12-27T10:41:37Z</time>
      </trkpt>
      <trkpt lat="59.8409481" lon="17.6073286">
        <ele>40.0321</ele>
        <time>2017-12-27T10:41:42Z</time>
      </trkpt>
      <trkpt lat="59.8409449" lon="17.6075783">
        <ele>42.4354</ele>
        <time>2017-12-27T10:41:48Z</time>
      </trkpt>
      <trkpt lat="59.8409222" lon="17.6076984">
        <ele>41.9547</ele>
        <time>2017-12-27T10:41:51Z</time>
      </trkpt>
      <trkpt lat="59.8409313" lon="17.6079109">
        <ele>43.8773</ele>
        <time>2017-12-27T10:41:57Z</time>
      </trkpt>
      <trkpt lat="59.8408824" lon="17.6081052">
        <ele>43.3966</ele>
        <time>2017-12-27T10:42:02Z</time>
      </trkpt>
      <trkpt lat="59.8408689" lon="17.6083267">
        <ele>41.9547</ele>
        <time>2017-12-27T10:42:07Z</time>
      </trkpt>
      <trkpt lat="59.8408591" lon="17.6085504">
        <ele>40.9934</ele>
        <time>2017-12-27T10:42:12Z</time>
      </trkpt>
      <trkpt lat="59.8408672" lon="17.6087633">
        <ele>40.9934</ele>
        <time>2017-12-27T10:42:17Z</time>
      </trkpt>
      <trkpt lat="59.8408753" lon="17.6091485">
        <ele>40.5128</ele>
        <time>2017-12-27T10:42:26Z</time>
      </trkpt>
      <trkpt lat="59.8408786" lon="17.6094134">
        <ele>39.5513</ele>
        <time>2017-12-27T10:42:32Z</time>
      </trkpt>
      <trkpt lat="59.8408869" lon="17.6097037">
        <ele>39.0707</ele>
        <time>2017-12-27T10:42:38Z</time>
      </trkpt>
      <trkpt lat="59.8409021" lon="17.6099906">
        <ele>38.1094</ele>
        <time>2017-12-27T10:42:44Z</time>
      </trkpt>
      <trkpt lat="59.8409131" lon="17.6102753">
        <ele>39.0707</ele>
        <time>2017-12-27T10:42:50Z</time>
      </trkpt>
      <trkpt lat="59.8409092" lon="17.6104987">
        <ele>39.0707</ele>
        <time>2017-12-27T10:42:55Z</time>
      </trkpt>
      <trkpt lat="59.8409253" lon="17.6109017">
        <ele>37.6287</ele>
        <time>2017-12-27T10:43:04Z</time>
      </trkpt>
      <trkpt lat="59.8409247" lon="17.6112298">
        <ele>36.6675</ele>
        <time>2017-12-27T10:43:11Z</time>
      </trkpt>
      <trkpt lat="59.8409402" lon="17.6115136">
        <ele>37.1481</ele>
        <time>2017-12-27T10:43:17Z</time>
      </trkpt>
      <trkpt lat="59.8409388" lon="17.6118436">
        <ele>35.7061</ele>
        <time>2017-12-27T10:43:24Z</time>
      </trkpt>
      <trkpt lat="59.8409429" lon="17.6121307">
        <ele>33.7834</ele>
        <time>2017-12-27T10:43:30Z</time>
      </trkpt>
      <trkpt lat="59.8409552" lon="17.6124212">
        <ele>33.3029</ele>
        <time>2017-12-27T10:43:36Z</time>
      </trkpt>
      <trkpt lat="59.8409564" lon="17.6126652">
        <ele>33.7834</ele>
        <time>2017-12-27T10:43:41Z</time>
      </trkpt>
      <trkpt lat="59.840953" lon="17.6130363">
        <ele>36.1868</ele>
        <time>2017-12-27T10:43:49Z</time>
      </trkpt>
      <trkpt lat="59.8409111" lon="17.6132697">
        <ele>36.1868</ele>
        <time>2017-12-27T10:43:54Z</time>
      </trkpt>
      <trkpt lat="59.84086" lon="17.6135047">
        <ele>36.6675</ele>
        <time>2017-12-27T10:43:59Z</time>
      </trkpt>
      <trkpt lat="59.8408135" lon="17.6137654">
        <ele>37.1481</ele>
        <time>2017-12-27T10:44:05Z</time>
      </trkpt>
      <trkpt lat="59.8407688" lon="17.6139865">
        <ele>36.6675</ele>
        <time>2017-12-27T10:44:10Z</time>
      </trkpt>
      <trkpt lat="59.8407251" lon="17.6142102">
        <ele>36.1868</ele>
        <time>2017-12-27T10:44:15Z</time>
      </trkpt>
      <trkpt lat="59.8406925" lon="17.614379">
        <ele>36.1868</ele>
        <time>2017-12-27T10:44:19Z</time>
      </trkpt>
      <trkpt lat="59.8406885" lon="17.6145415">
        <ele>34.7449</ele>
        <time>2017-12-27T10:44:23Z</time>
      </trkpt>
      <trkpt lat="59.8407232" lon="17.6147922">
        <ele>34.7449</ele>
        <time>2017-12-27T10:44:29Z</time>
      </trkpt>
      <trkpt lat="59.8407905" lon="17.6149159">
        <ele>33.7834</ele>
        <time>2017-12-27T10:44:33Z</time>
      </trkpt>
      <trkpt lat="59.8408047" lon="17.6150069">
        <ele>33.3029</ele>
        <time>2017-12-27T10:44:35Z</time>
      </trkpt>
      <trkpt lat="59.840847" lon="17.6152056">
        <ele>31.8607</ele>
        <time>2017-12-27T10:44:40Z</time>
      </trkpt>
      <trkpt lat="59.8408632" lon="17.6152863">
        <ele>30.8995</ele>
        <time>2017-12-27T10:44:42Z</time>
      </trkpt>
      <trkpt lat="59.840875" lon="17.6153738">
        <ele>31.3801</ele>
        <time>2017-12-27T10:44:44Z</time>
      </trkpt>
      <trkpt lat="59.8409579" lon="17.6155359">
        <ele>30.8995</ele>
        <time>2017-12-27T10:44:50Z</time>
      </trkpt>
      <trkpt lat="59.8410538" lon="17.6155961">
        <ele>32.8223</ele>
        <time>2017-12-27T10:44:54Z</time>
      </trkpt>
      <trkpt lat="59.8411874" lon="17.6157383">
        <ele>30.4188</ele>
        <time>2017-12-27T10:45:01Z</time>
      </trkpt>
      <trkpt lat="59.8413009" lon="17.6158324">
        <ele>33.7834</ele>
        <time>2017-12-27T10:45:06Z</time>
      </trkpt>
      <trkpt lat="59.8414389" lon="17.6158978">
        <ele>35.2255</ele>
        <time>2017-12-27T10:45:12Z</time>
      </trkpt>
      <trkpt lat="59.8415691" lon="17.6160026">
        <ele>35.7061</ele>
        <time>2017-12-27T10:45:18Z</time>
      </trkpt>
      <trkpt lat="59.8417012" lon="17.6161434">
        <ele>37.6287</ele>
        <time>2017-12-27T10:45:24Z</time>
      </trkpt>
      <trkpt lat="59.841808" lon="17.6162293">
        <ele>40.0321</ele>
        <time>2017-12-27T10:45:29Z</time>
      </trkpt>
      <trkpt lat="59.8419484" lon="17.616315">
        <ele>40.5128</ele>
        <time>2017-12-27T10:45:35Z</time>
      </trkpt>
      <trkpt lat="59.8420572" lon="17.6164096">
        <ele>39.5513</ele>
        <time>2017-12-27T10:45:40Z</time>
      </trkpt>
      <trkpt lat="59.8421831" lon="17.6165187">
        <ele>38.5901</ele>
        <time>2017-12-27T10:45:46Z</time>
      </trkpt>
      <trkpt lat="59.8423233" lon="17.6166419">
        <ele>38.5901</ele>
        <time>2017-12-27T10:45:52Z</time>
      </trkpt>
      <trkpt lat="59.8424617" lon="17.6166563">
        <ele>34.2642</ele>
        <time>2017-12-27T10:45:58Z</time>
      </trkpt>
      <trkpt lat="59.8425912" lon="17.6166567">
        <ele>29.4575</ele>
        <time>2017-12-27T10:46:04Z</time>
      </trkpt>
      <trkpt lat="59.8427479" lon="17.6166386">
        <ele>30.4188</ele>
        <time>2017-12-27T10:46:10Z</time>
      </trkpt>
      <trkpt lat="59.8428997" lon="17.6165946">
        <ele>30.8995</ele>
        <time>2017-12-27T10:46:16Z</time>
      </trkpt>
      <trkpt lat="59.8430702" lon="17.616549">
        <ele>32.8223</ele>
        <time>2017-12-27T10:46:23Z</time>
      </trkpt>
      <trkpt lat="59.8431936" lon="17.6165103">
        <ele>32.3416</ele>
        <time>2017-12-27T10:46:28Z</time>
      </trkpt>
      <trkpt lat="59.8433392" lon="17.6164584">
        <ele>32.8223</ele>
        <time>2017-12-27T10:46:34Z</time>
      </trkpt>
      <trkpt lat="59.8435084" lon="17.6164091">
        <ele>32.3416</ele>
        <time>2017-12-27T10:46:41Z</time>
      </trkpt>
      <trkpt lat="59.8436557" lon="17.6163854">
        <ele>31.8607</ele>
        <time>2017-12-27T10:46:47Z</time>
      </trkpt>
      <trkpt lat="59.8438369" lon="17.6163554">
        <ele>31.3801</ele>
        <time>2017-12-27T10:46:54Z</time>
      </trkpt>
      <trkpt lat="59.8439954" lon="17.6163031">
        <ele>31.3801</ele>
        <time>2017-12-27T10:47:00Z</time>
      </trkpt>
      <trkpt lat="59.84415" lon="17.6162575">
        <ele>32.8223</ele>
        <time>2017-12-27T10:47:06Z</time>
      </trkpt>
      <trkpt lat="59.8442728" lon="17.6162332">
        <ele>33.3029</ele>
        <time>2017-12-27T10:47:11Z</time>
      </trkpt>
      <trkpt lat="59.8444083" lon="17.6161953">
        <ele>31.8607</ele>
        <time>2017-12-27T10:47:17Z</time>
      </trkpt>
      <trkpt lat="59.844548" lon="17.6161705">
        <ele>30.8995</ele>
        <time>2017-12-27T10:47:23Z</time>
      </trkpt>
      <trkpt lat="59.8446674" lon="17.6161636">
        <ele>30.4188</ele>
        <time>2017-12-27T10:47:28Z</time>
      </trkpt>
      <trkpt lat="59.8448139" lon="17.6161824">
        <ele>30.4188</ele>
        <time>2017-12-27T10:47:34Z</time>
      </trkpt>
      <trkpt lat="59.8449324" lon="17.6162188">
        <ele>30.4188</ele>
        <time>2017-12-27T10:47:39Z</time>
      </trkpt>
      <trkpt lat="59.8451258" lon="17.6163016">
        <ele>29.9381</ele>
        <time>2017-12-27T10:47:47Z</time>
      </trkpt>
      <trkpt lat="59.8452495" lon="17.6164156">
        <ele>29.4575</ele>
        <time>2017-12-27T10:47:53Z</time>
      </trkpt>
      <trkpt lat="59.8453564" lon="17.616515">
        <ele>28.4962</ele>
        <time>2017-12-27T10:47:58Z</time>
      </trkpt>
      <trkpt lat="59.8455391" lon="17.6166337">
        <ele>28.0155</ele>
        <time>2017-12-27T10:48:06Z</time>
      </trkpt>
      <trkpt lat="59.8457049" lon="17.6167204">
        <ele>28.0155</ele>
        <time>2017-12-27T10:48:13Z</time>
      </trkpt>
      <trkpt lat="59.8458521" lon="17.6167698">
        <ele>28.0155</ele>
        <time>2017-12-27T10:48:19Z</time>
      </trkpt>
      <trkpt lat="59.845982" lon="17.6167988">
        <ele>28.0155</ele>
        <time>2017-12-27T10:48:24Z</time>
      </trkpt>
      <trkpt lat="59.8461691" lon="17.6168631">
        <ele>28.0155</ele>
        <time>2017-12-27T10:48:31Z</time>
      </trkpt>
      <trkpt lat="59.8463727" lon="17.6169216">
        <ele>26.5736</ele>
        <time>2017-12-27T10:48:39Z</time>
      </trkpt>
      <trkpt lat="59.8465843" lon="17.6169905">
        <ele>26.0929</ele>
        <time>2017-12-27T10:48:47Z</time>
      </trkpt>
      <trkpt lat="59.8467296" lon="17.6170747">
        <ele>24.651</ele>
        <time>2017-12-27T10:48:53Z</time>
      </trkpt>
      <trkpt lat="59.8468556" lon="17.6171458">
        <ele>25.1317</ele>
        <time>2017-12-27T10:48:58Z</time>
      </trkpt>
      <trkpt lat="59.8470036" lon="17.617232">
        <ele>26.0929</ele>
        <time>2017-12-27T10:49:04Z</time>
      </trkpt>
      <trkpt lat="59.8471336" lon="17.6173214">
        <ele>26.5736</ele>
        <time>2017-12-27T10:49:10Z</time>
      </trkpt>
      <trkpt lat="59.8472757" lon="17.6174004">
        <ele>27.0543</ele>
        <time>2017-12-27T10:49:16Z</time>
      </trkpt>
      <trkpt lat="59.8474087" lon="17.6175043">
        <ele>27.0543</ele>
        <time>2017-12-27T10:49:22Z</time>
      </trkpt>
      <trkpt lat="59.8475815" lon="17.6175985">
        <ele>28.9769</ele>
        <time>2017-12-27T10:49:29Z</time>
      </trkpt>
      <trkpt lat="59.847727" lon="17.6176787">
        <ele>28.9769</ele>
        <time>2017-12-27T10:49:35Z</time>
      </trkpt>
      <trkpt lat="59.8478469" lon="17.6177582">
        <ele>28.0155</ele>
        <time>2017-12-27T10:49:40Z</time>
      </trkpt>
      <trkpt lat="59.8479888" lon="17.6178645">
        <ele>26.5736</ele>
        <time>2017-12-27T10:49:46Z</time>
      </trkpt>
      <trkpt lat="59.8480939" lon="17.617982">
        <ele>26.0929</ele>
        <time>2017-12-27T10:49:51Z</time>
      </trkpt>
      <trkpt lat="59.8482561" lon="17.6181285">
        <ele>25.6123</ele>
        <time>2017-12-27T10:49:58Z</time>
      </trkpt>
      <trkpt lat="59.8483783" lon="17.6182286">
        <ele>27.0543</ele>
        <time>2017-12-27T10:50:03Z</time>
      </trkpt>
      <trkpt lat="59.8485214" lon="17.6183555">
        <ele>28.0155</ele>
        <time>2017-12-27T10:50:09Z</time>
      </trkpt>
      <trkpt lat="59.8486281" lon="17.6184694">
        <ele>27.0543</ele>
        <time>2017-12-27T10:50:14Z</time>
      </trkpt>
      <trkpt lat="59.8487528" lon="17.618603">
        <ele>26.5736</ele>
        <time>2017-12-27T10:50:20Z</time>
      </trkpt>
      <trkpt lat="59.8488836" lon="17.6187376">
        <ele>26.5736</ele>
        <time>2017-12-27T10:50:26Z</time>
      </trkpt>
      <trkpt lat="59.849013" lon="17.6188641">
        <ele>26.0929</ele>
        <time>2017-12-27T10:50:32Z</time>
      </trkpt>
      <trkpt lat="59.8491176" lon="17.6189821">
        <ele>26.0929</ele>
        <time>2017-12-27T10:50:37Z</time>
      </trkpt>
      <trkpt lat="59.8492616" lon="17.6191445">
        <ele>27.0543</ele>
        <time>2017-12-27T10:50:44Z</time>
      </trkpt>
      <trkpt lat="59.8493515" lon="17.6192895">
        <ele>27.5349</ele>
        <time>2017-12-27T10:50:49Z</time>
      </trkpt>
      <trkpt lat="59.8494736" lon="17.6195551">
        <ele>28.9769</ele>
        <time>2017-12-27T10:50:57Z</time>
      </trkpt>
      <trkpt lat="59.8495513" lon="17.6197396">
        <ele>29.4575</ele>
        <time>2017-12-27T10:51:02Z</time>
      </trkpt>
      <trkpt lat="59.8496111" lon="17.6199233">
        <ele>28.4962</ele>
        <time>2017-12-27T10:51:07Z</time>
      </trkpt>
      <trkpt lat="59.8496693" lon="17.6201667">
        <ele>27.5349</ele>
        <time>2017-12-27T10:51:13Z</time>
      </trkpt>
      <trkpt lat="59.8497486" lon="17.6204555">
        <ele>26.0929</ele>
        <time>2017-12-27T10:51:20Z</time>
      </trkpt>
      <trkpt lat="59.8498014" lon="17.6206739">
        <ele>24.651</ele>
        <time>2017-12-27T10:51:25Z</time>
      </trkpt>
      <trkpt lat="59.8498768" lon="17.6206832">
        <ele>23.6896</ele>
        <time>2017-12-27T10:51:29Z</time>
      </trkpt>
      <trkpt lat="59.8499123" lon="17.6206231">
        <ele>23.6896</ele>
        <time>2017-12-27T10:51:31Z</time>
      </trkpt>
      <trkpt lat="59.8500376" lon="17.6203524">
        <ele>24.651</ele>
        <time>2017-12-27T10:51:39Z</time>
      </trkpt>
      <trkpt lat="59.8501391" lon="17.6201377">
        <ele>23.6896</ele>
        <time>2017-12-27T10:51:45Z</time>
      </trkpt>
      <trkpt lat="59.8502259" lon="17.6199861">
        <ele>23.209</ele>
        <time>2017-12-27T10:51:50Z</time>
      </trkpt>
      <trkpt lat="59.8503296" lon="17.6197642">
        <ele>25.1317</ele>
        <time>2017-12-27T10:51:56Z</time>
      </trkpt>
      <trkpt lat="59.8504721" lon="17.6195516">
        <ele>24.651</ele>
        <time>2017-12-27T10:52:03Z</time>
      </trkpt>
      <trkpt lat="59.8505887" lon="17.6193548">
        <ele>26.0929</ele>
        <time>2017-12-27T10:52:09Z</time>
      </trkpt>
      <trkpt lat="59.8506696" lon="17.619179">
        <ele>25.1317</ele>
        <time>2017-12-27T10:52:14Z</time>
      </trkpt>
      <trkpt lat="59.8507543" lon="17.6190132">
        <ele>22.7283</ele>
        <time>2017-12-27T10:52:19Z</time>
      </trkpt>
      <trkpt lat="59.8508581" lon="17.6188351">
        <ele>20.325</ele>
        <time>2017-12-27T10:52:25Z</time>
      </trkpt>
      <trkpt lat="59.8509778" lon="17.6186621">
        <ele>21.2864</ele>
        <time>2017-12-27T10:52:31Z</time>
      </trkpt>
      <trkpt lat="59.8510965" lon="17.6185596">
        <ele>22.2476</ele>
        <time>2017-12-27T10:52:36Z</time>
      </trkpt>
      <trkpt lat="59.8511858" lon="17.6185045">
        <ele>23.209</ele>
        <time>2017-12-27T10:52:40Z</time>
      </trkpt>
      <trkpt lat="59.8513077" lon="17.618387">
        <ele>21.2864</ele>
        <time>2017-12-27T10:52:46Z</time>
      </trkpt>
      <trkpt lat="59.8513434" lon="17.6183406">
        <ele>20.8057</ele>
        <time>2017-12-27T10:52:48Z</time>
      </trkpt>
      <trkpt lat="59.8514875" lon="17.618205">
        <ele>20.325</ele>
        <time>2017-12-27T10:52:55Z</time>
      </trkpt>
      <trkpt lat="59.8515984" lon="17.6181032">
        <ele>19.3638</ele>
        <time>2017-12-27T10:53:00Z</time>
      </trkpt>
      <trkpt lat="59.8517326" lon="17.6179766">
        <ele>17.4412</ele>
        <time>2017-12-27T10:53:06Z</time>
      </trkpt>
      <trkpt lat="59.8518439" lon="17.6178544">
        <ele>16.4797</ele>
        <time>2017-12-27T10:53:11Z</time>
      </trkpt>
      <trkpt lat="59.8519877" lon="17.6177323">
        <ele>15.999</ele>
        <time>2017-12-27T10:53:17Z</time>
      </trkpt>
      <trkpt lat="59.8521134" lon="17.6176161">
        <ele>14.557</ele>
        <time>2017-12-27T10:53:23Z</time>
      </trkpt>
      <trkpt lat="59.8522059" lon="17.6175345">
        <ele>15.5184</ele>
        <time>2017-12-27T10:53:27Z</time>
      </trkpt>
      <trkpt lat="59.8522837" lon="17.6175033">
        <ele>15.0377</ele>
        <time>2017-12-27T10:53:32Z</time>
      </trkpt>
      <trkpt lat="59.8524073" lon="17.6173985">
        <ele>15.999</ele>
        <time>2017-12-27T10:53:37Z</time>
      </trkpt>
      <trkpt lat="59.8525494" lon="17.6172644">
        <ele>17.9218</ele>
        <time>2017-12-27T10:53:43Z</time>
      </trkpt>
      <trkpt lat="59.8526867" lon="17.617162">
        <ele>18.8831</ele>
        <time>2017-12-27T10:53:49Z</time>
      </trkpt>
      <trkpt lat="59.8528203" lon="17.6170481">
        <ele>18.8831</ele>
        <time>2017-12-27T10:53:55Z</time>
      </trkpt>
      <trkpt lat="59.8529393" lon="17.6169444">
        <ele>20.325</ele>
        <time>2017-12-27T10:54:00Z</time>
      </trkpt>
      <trkpt lat="59.8530943" lon="17.6167971">
        <ele>17.4412</ele>
        <time>2017-12-27T10:54:07Z</time>
      </trkpt>
      <trkpt lat="59.8532203" lon="17.6166379">
        <ele>17.9218</ele>
        <time>2017-12-27T10:54:13Z</time>
      </trkpt>
      <trkpt lat="59.8532575" lon="17.6164177">
        <ele>18.4023</ele>
        <time>2017-12-27T10:54:18Z</time>
      </trkpt>
      <trkpt lat="59.8532746" lon="17.616335">
        <ele>18.4023</ele>
        <time>2017-12-27T10:54:20Z</time>
      </trkpt>
      <trkpt lat="59.8534015" lon="17.616158">
        <ele>20.8057</ele>
        <time>2017-12-27T10:54:26Z</time>
      </trkpt>
      <trkpt lat="59.8535439" lon="17.6161542">
        <ele>20.8057</ele>
        <time>2017-12-27T10:54:32Z</time>
      </trkpt>
      <trkpt lat="59.8535895" lon="17.6161736">
        <ele>20.325</ele>
        <time>2017-12-27T10:54:34Z</time>
      </trkpt>
      <trkpt lat="59.8537611" lon="17.6160175">
        <ele>19.8444</ele>
        <time>2017-12-27T10:54:42Z</time>
      </trkpt>
      <trkpt lat="59.8538854" lon="17.6158469">
        <ele>21.767</ele>
        <time>2017-12-27T10:54:48Z</time>
      </trkpt>
      <trkpt lat="59.85399" lon="17.6157348">
        <ele>21.767</ele>
        <time>2017-12-27T10:54:53Z</time>
      </trkpt>
      <trkpt lat="59.8541491" lon="17.6155334">
        <ele>22.7283</ele>
        <time>2017-12-27T10:55:01Z</time>
      </trkpt>
      <trkpt lat="59.8542737" lon="17.6153905">
        <ele>23.209</ele>
        <time>2017-12-27T10:55:07Z</time>
      </trkpt>
      <trkpt lat="59.8544178" lon="17.6152115">
        <ele>24.1703</ele>
        <time>2017-12-27T10:55:14Z</time>
      </trkpt>
      <trkpt lat="59.8545256" lon="17.6150629">
        <ele>24.651</ele>
        <time>2017-12-27T10:55:19Z</time>
      </trkpt>
      <trkpt lat="59.8545969" lon="17.6149671">
        <ele>24.651</ele>
        <time>2017-12-27T10:55:23Z</time>
      </trkpt>
      <trkpt lat="59.854752" lon="17.6147908">
        <ele>24.651</ele>
        <time>2017-12-27T10:55:30Z</time>
      </trkpt>
      <trkpt lat="59.8548924" lon="17.6146559">
        <ele>24.651</ele>
        <time>2017-12-27T10:55:36Z</time>
      </trkpt>
      <trkpt lat="59.8550196" lon="17.6144805">
        <ele>23.6896</ele>
        <time>2017-12-27T10:55:42Z</time>
      </trkpt>
      <trkpt lat="59.8551447" lon="17.6143445">
        <ele>22.2476</ele>
        <time>2017-12-27T10:55:48Z</time>
      </trkpt>
      <trkpt lat="59.8552493" lon="17.6141071">
        <ele>21.767</ele>
        <time>2017-12-27T10:55:55Z</time>
      </trkpt>
      <trkpt lat="59.8552912" lon="17.6140439">
        <ele>20.8057</ele>
        <time>2017-12-27T10:55:57Z</time>
      </trkpt>
      <trkpt lat="59.8553886" lon="17.6140135">
        <ele>20.325</ele>
        <time>2017-12-27T10:56:01Z</time>
      </trkpt>
      <trkpt lat="59.8555027" lon="17.6140254">
        <ele>19.8444</ele>
        <time>2017-12-27T10:56:06Z</time>
      </trkpt>
      <trkpt lat="59.8556562" lon="17.6138892">
        <ele>18.4023</ele>
        <time>2017-12-27T10:56:13Z</time>
      </trkpt>
      <trkpt lat="59.8557518" lon="17.6137711">
        <ele>17.4412</ele>
        <time>2017-12-27T10:56:18Z</time>
      </trkpt>
      <trkpt lat="59.8558549" lon="17.6136709">
        <ele>16.4797</ele>
        <time>2017-12-27T10:56:23Z</time>
      </trkpt>
      <trkpt lat="59.8559838" lon="17.6135347">
        <ele>16.4797</ele>
        <time>2017-12-27T10:56:29Z</time>
      </trkpt>
      <trkpt lat="59.8561008" lon="17.6133899">
        <ele>16.4797</ele>
        <time>2017-12-27T10:56:35Z</time>
      </trkpt>
      <trkpt lat="59.8562392" lon="17.6132267">
        <ele>15.5184</ele>
        <time>2017-12-27T10:56:42Z</time>
      </trkpt>
      <trkpt lat="59.8563436" lon="17.6131263">
        <ele>16.9604</ele>
        <time>2017-12-27T10:56:47Z</time>
      </trkpt>
      <trkpt lat="59.8564691" lon="17.6129916">
        <ele>15.5184</ele>
        <time>2017-12-27T10:56:53Z</time>
      </trkpt>
      <trkpt lat="59.856569" lon="17.6128846">
        <ele>14.0764</ele>
        <time>2017-12-27T10:56:58Z</time>
      </trkpt>
      <trkpt lat="59.8567094" lon="17.6127126">
        <ele>13.5958</ele>
        <time>2017-12-27T10:57:05Z</time>
      </trkpt>
      <trkpt lat="59.8568333" lon="17.612576">
        <ele>13.1151</ele>
        <time>2017-12-27T10:57:11Z</time>
      </trkpt>
      <trkpt lat="59.8569376" lon="17.6123811">
        <ele>14.557</ele>
        <time>2017-12-27T10:57:17Z</time>
      </trkpt>
      <trkpt lat="59.8570525" lon="17.6121472">
        <ele>16.9604</ele>
        <time>2017-12-27T10:57:23Z</time>
      </trkpt>
      <trkpt lat="59.8571317" lon="17.6120076">
        <ele>17.4412</ele>
        <time>2017-12-27T10:57:27Z</time>
      </trkpt>
      <trkpt lat="59.8572996" lon="17.6119926">
        <ele>14.557</ele>
        <time>2017-12-27T10:57:34Z</time>
      </trkpt>
      <trkpt lat="59.8574165" lon="17.6118737">
        <ele>12.6344</ele>
        <time>2017-12-27T10:57:40Z</time>
      </trkpt>
      <trkpt lat="59.8575191" lon="17.6117439">
        <ele>13.5958</ele>
        <time>2017-12-27T10:57:45Z</time>
      </trkpt>
      <trkpt lat="59.8575699" lon="17.611699">
        <ele>15.0377</ele>
        <time>2017-12-27T10:57:47Z</time>
      </trkpt>
      <trkpt lat="59.857733" lon="17.6114871">
        <ele>16.9604</ele>
        <time>2017-12-27T10:57:55Z</time>
      </trkpt>
      <trkpt lat="59.8578222" lon="17.6113738">
        <ele>18.4023</ele>
        <time>2017-12-27T10:57:59Z</time>
      </trkpt>
      <trkpt lat="59.857945" lon="17.6112365">
        <ele>19.3638</ele>
        <time>2017-12-27T10:58:05Z</time>
      </trkpt>
      <trkpt lat="59.8580501" lon="17.6111115">
        <ele>19.3638</ele>
        <time>2017-12-27T10:58:10Z</time>
      </trkpt>
      <trkpt lat="59.8581464" lon="17.6109731">
        <ele>18.4023</ele>
        <time>2017-12-27T10:58:15Z</time>
      </trkpt>
      <trkpt lat="59.8582512" lon="17.6108738">
        <ele>17.4412</ele>
        <time>2017-12-27T10:58:20Z</time>
      </trkpt>
      <trkpt lat="59.8583531" lon="17.6107478">
        <ele>16.9604</ele>
        <time>2017-12-27T10:58:25Z</time>
      </trkpt>
      <trkpt lat="59.8584923" lon="17.6106164">
        <ele>16.9604</ele>
        <time>2017-12-27T10:58:31Z</time>
      </trkpt>
      <trkpt lat="59.8586101" lon="17.6104425">
        <ele>16.9604</ele>
        <time>2017-12-27T10:58:37Z</time>
      </trkpt>
      <trkpt lat="59.8587521" lon="17.6103019">
        <ele>16.4797</ele>
        <time>2017-12-27T10:58:44Z</time>
      </trkpt>
      <trkpt lat="59.858854" lon="17.6101925">
        <ele>15.0377</ele>
        <time>2017-12-27T10:58:49Z</time>
      </trkpt>
      <trkpt lat="59.8589721" lon="17.610076">
        <ele>15.0377</ele>
        <time>2017-12-27T10:58:55Z</time>
      </trkpt>
      <trkpt lat="59.8590955" lon="17.6099342">
        <ele>15.5184</ele>
        <time>2017-12-27T10:59:01Z</time>
      </trkpt>
      <trkpt lat="59.8591173" lon="17.6099124">
        <ele>15.999</ele>
        <time>2017-12-27T10:59:02Z</time>
      </trkpt>
      <trkpt lat="59.8592223" lon="17.6097658">
        <ele>16.9604</ele>
        <time>2017-12-27T10:59:08Z</time>
      </trkpt>
      <trkpt lat="59.8593229" lon="17.6096461">
        <ele>17.9218</ele>
        <time>2017-12-27T10:59:13Z</time>
      </trkpt>
      <trkpt lat="59.859401" lon="17.6095426">
        <ele>19.3638</ele>
        <time>2017-12-27T10:59:17Z</time>
      </trkpt>
      <trkpt lat="59.8595187" lon="17.6094053">
        <ele>20.8057</ele>
        <time>2017-12-27T10:59:23Z</time>
      </trkpt>
      <trkpt lat="59.8595602" lon="17.6093592">
        <ele>20.8057</ele>
        <time>2017-12-27T10:59:25Z</time>
      </trkpt>
      <trkpt lat="59.8596078" lon="17.6090223">
        <ele>20.8057</ele>
        <time>2017-12-27T10:59:33Z</time>
      </trkpt>
      <trkpt lat="59.8596725" lon="17.6087422">
        <ele>20.325</ele>
        <time>2017-12-27T10:59:40Z</time>
      </trkpt>
      <trkpt lat="59.8597218" lon="17.6085589">
        <ele>19.3638</ele>
        <time>2017-12-27T10:59:45Z</time>
      </trkpt>
      <trkpt lat="59.8597737" lon="17.6083361">
        <ele>19.3638</ele>
        <time>2017-12-27T10:59:51Z</time>
      </trkpt>
      <trkpt lat="59.8598263" lon="17.6081409">
        <ele>19.3638</ele>
        <time>2017-12-27T10:59:56Z</time>
      </trkpt>
      <trkpt lat="59.8598974" lon="17.6079046">
        <ele>18.4023</ele>
        <time>2017-12-27T11:00:02Z</time>
      </trkpt>
      <trkpt lat="59.8600025" lon="17.607805">
        <ele>19.3638</ele>
        <time>2017-12-27T11:00:07Z</time>
      </trkpt>
      <trkpt lat="59.8601213" lon="17.6077987">
        <ele>18.4023</ele>
        <time>2017-12-27T11:00:12Z</time>
      </trkpt>
      <trkpt lat="59.860246" lon="17.6077627">
        <ele>19.8444</ele>
        <time>2017-12-27T11:00:17Z</time>
      </trkpt>
      <trkpt lat="59.8603176" lon="17.6077549">
        <ele>19.8444</ele>
        <time>2017-12-27T11:00:20Z</time>
      </trkpt>
      <trkpt lat="59.8604289" lon="17.6075612">
        <ele>20.8057</ele>
        <time>2017-12-27T11:00:27Z</time>
      </trkpt>
      <trkpt lat="59.8605113" lon="17.6073472">
        <ele>22.2476</ele>
        <time>2017-12-27T11:00:33Z</time>
      </trkpt>
      <trkpt lat="59.8606156" lon="17.6072052">
        <ele>21.767</ele>
        <time>2017-12-27T11:00:39Z</time>
      </trkpt>
      <trkpt lat="59.8607236" lon="17.6071213">
        <ele>21.2864</ele>
        <time>2017-12-27T11:00:45Z</time>
      </trkpt>
      <trkpt lat="59.8607617" lon="17.607099">
        <ele>21.767</ele>
        <time>2017-12-27T11:00:47Z</time>
      </trkpt>
      <trkpt lat="59.8608024" lon="17.6070277">
        <ele>21.767</ele>
        <time>2017-12-27T11:00:52Z</time>
      </trkpt>
      <trkpt lat="59.860777" lon="17.6069328">
        <ele>22.2476</ele>
        <time>2017-12-27T11:00:57Z</time>
      </trkpt>
      <trkpt lat="59.8607852" lon="17.6067685">
        <ele>23.6896</ele>
        <time>2017-12-27T11:01:02Z</time>
      </trkpt>
      <trkpt lat="59.8608277" lon="17.6067044">
        <ele>22.7283</ele>
        <time>2017-12-27T11:01:04Z</time>
      </trkpt>
      <trkpt lat="59.8609482" lon="17.606562">
        <ele>21.2864</ele>
        <time>2017-12-27T11:01:10Z</time>
      </trkpt>
      <trkpt lat="59.861052" lon="17.6064609">
        <ele>19.3638</ele>
        <time>2017-12-27T11:01:15Z</time>
      </trkpt>
      <trkpt lat="59.8611985" lon="17.6062815">
        <ele>15.999</ele>
        <time>2017-12-27T11:01:22Z</time>
      </trkpt>
      <trkpt lat="59.8612845" lon="17.6061693">
        <ele>15.5184</ele>
        <time>2017-12-27T11:01:26Z</time>
      </trkpt>
      <trkpt lat="59.861396" lon="17.6059769">
        <ele>15.0377</ele>
        <time>2017-12-27T11:01:32Z</time>
      </trkpt>
      <trkpt lat="59.8614944" lon="17.6058135">
        <ele>14.0764</ele>
        <time>2017-12-27T11:01:38Z</time>
      </trkpt>
      <trkpt lat="59.8616023" lon="17.6056456">
        <ele>15.0377</ele>
        <time>2017-12-27T11:01:43Z</time>
      </trkpt>
      <trkpt lat="59.8617353" lon="17.605457">
        <ele>17.4412</ele>
        <time>2017-12-27T11:01:49Z</time>
      </trkpt>
      <trkpt lat="59.8618636" lon="17.6052301">
        <ele>20.325</ele>
        <time>2017-12-27T11:01:55Z</time>
      </trkpt>
      <trkpt lat="59.861956" lon="17.6050465">
        <ele>20.325</ele>
        <time>2017-12-27T11:02:00Z</time>
      </trkpt>
      <trkpt lat="59.862057" lon="17.6048686">
        <ele>20.325</ele>
        <time>2017-12-27T11:02:05Z</time>
      </trkpt>
      <trkpt lat="59.8621925" lon="17.6046173">
        <ele>18.8831</ele>
        <time>2017-12-27T11:02:12Z</time>
      </trkpt>
      <trkpt lat="59.8623604" lon="17.6043396">
        <ele>16.4797</ele>
        <time>2017-12-27T11:02:21Z</time>
      </trkpt>
      <trkpt lat="59.8624891" lon="17.6040926">
        <ele>16.4797</ele>
        <time>2017-12-27T11:02:28Z</time>
      </trkpt>
      <trkpt lat="59.8624896" lon="17.6038375">
        <ele>17.4412</ele>
        <time>2017-12-27T11:02:34Z</time>
      </trkpt>
      <trkpt lat="59.8624337" lon="17.6036875">
        <ele>17.4412</ele>
        <time>2017-12-27T11:02:38Z</time>
      </trkpt>
      <trkpt lat="59.8624283" lon="17.6036438">
        <ele>17.4412</ele>
        <time>2017-12-27T11:02:39Z</time>
      </trkpt>
      <trkpt lat="59.8624166" lon="17.6033802">
        <ele>18.4023</ele>
        <time>2017-12-27T11:02:45Z</time>
      </trkpt>
      <trkpt lat="59.8624015" lon="17.6031011">
        <ele>16.4797</ele>
        <time>2017-12-27T11:02:51Z</time>
      </trkpt>
      <trkpt lat="59.8623867" lon="17.6028942">
        <ele>15.999</ele>
        <time>2017-12-27T11:02:56Z</time>
      </trkpt>
      <trkpt lat="59.8623403" lon="17.6026945">
        <ele>15.5184</ele>
        <time>2017-12-27T11:03:01Z</time>
      </trkpt>
      <trkpt lat="59.862244" lon="17.6024702">
        <ele>16.4797</ele>
        <time>2017-12-27T11:03:07Z</time>
      </trkpt>
      <trkpt lat="59.8622159" lon="17.6024009">
        <ele>16.4797</ele>
        <time>2017-12-27T11:03:09Z</time>
      </trkpt>
      <trkpt lat="59.8621424" lon="17.6022656">
        <ele>15.999</ele>
        <time>2017-12-27T11:03:14Z</time>
      </trkpt>
      <trkpt lat="59.8620772" lon="17.6021168">
        <ele>15.999</ele>
        <time>2017-12-27T11:03:19Z</time>
      </trkpt>
      <trkpt lat="59.8620186" lon="17.601874">
        <ele>14.0764</ele>
        <time>2017-12-27T11:03:26Z</time>
      </trkpt>
      <trkpt lat="59.8619254" lon="17.6016196">
        <ele>15.0377</ele>
        <time>2017-12-27T11:03:33Z</time>
      </trkpt>
      <trkpt lat="59.8618359" lon="17.6014032">
        <ele>15.5184</ele>
        <time>2017-12-27T11:03:40Z</time>
      </trkpt>
      <trkpt lat="59.8617705" lon="17.6012969">
        <ele>15.999</ele>
        <time>2017-12-27T11:03:45Z</time>
      </trkpt>
      <trkpt lat="59.8616976" lon="17.6012294">
        <ele>15.999</ele>
        <time>2017-12-27T11:03:50Z</time>
      </trkpt>
      <trkpt lat="59.8616809" lon="17.6012081">
        <ele>15.999</ele>
        <time>2017-12-27T11:03:51Z</time>
      </trkpt>
      <trkpt lat="59.8616053" lon="17.6011597">
        <ele>15.999</ele>
        <time>2017-12-27T11:03:55Z</time>
      </trkpt>
      <trkpt lat="59.8615685" lon="17.6011354">
        <ele>15.999</ele>
        <time>2017-12-27T11:03:57Z</time>
      </trkpt>
      <trkpt lat="59.8614746" lon="17.6011047">
        <ele>15.999</ele>
        <time>2017-12-27T11:04:03Z</time>
      </trkpt>
      <trkpt lat="59.861444" lon="17.6010964">
        <ele>16.4797</ele>
        <time>2017-12-27T11:04:05Z</time>
      </trkpt>
      <trkpt lat="59.8614152" lon="17.6011006">
        <ele>16.4797</ele>
        <time>2017-12-27T11:04:07Z</time>
      </trkpt>
      <trkpt lat="59.8613526" lon="17.6011575">
        <ele>17.4412</ele>
        <time>2017-12-27T11:04:13Z</time>
      </trkpt>
      <trkpt lat="59.8613287" lon="17.6011592">
        <ele>17.4412</ele>
        <time>2017-12-27T11:04:15Z</time>
      </trkpt>
      <trkpt lat="59.8612326" lon="17.6011512">
        <ele>18.4023</ele>
        <time>2017-12-27T11:04:22Z</time>
      </trkpt>
      <trkpt lat="59.861195" lon="17.6011471">
        <ele>17.9218</ele>
        <time>2017-12-27T11:04:24Z</time>
      </trkpt>
      <trkpt lat="59.8610624" lon="17.6012144">
        <ele>16.9604</ele>
        <time>2017-12-27T11:04:30Z</time>
      </trkpt>
      <trkpt lat="59.8609733" lon="17.6012658">
        <ele>16.9604</ele>
        <time>2017-12-27T11:04:34Z</time>
      </trkpt>
      <trkpt lat="59.8608853" lon="17.6013327">
        <ele>17.4412</ele>
        <time>2017-12-27T11:04:38Z</time>
      </trkpt>
      <trkpt lat="59.8607588" lon="17.6012785">
        <ele>15.999</ele>
        <time>2017-12-27T11:04:44Z</time>
      </trkpt>
      <trkpt lat="59.8607363" lon="17.6012392">
        <ele>15.0377</ele>
        <time>2017-12-27T11:04:46Z</time>
      </trkpt>
      <trkpt lat="59.860677" lon="17.6011837">
        <ele>13.5958</ele>
        <time>2017-12-27T11:04:49Z</time>
      </trkpt>
      <trkpt lat="59.8605703" lon="17.6010121">
        <ele>10.7118</ele>
        <time>2017-12-27T11:04:55Z</time>
      </trkpt>
      <trkpt lat="59.8605584" lon="17.6009825">
        <ele>10.2312</ele>
        <time>2017-12-27T11:04:56Z</time>
      </trkpt>
      <trkpt lat="59.8604786" lon="17.6009799">
        <ele>8.78918</ele>
        <time>2017-12-27T11:05:01Z</time>
      </trkpt>
      <trkpt lat="59.8604097" lon="17.6008916">
        <ele>8.78918</ele>
        <time>2017-12-27T11:05:06Z</time>
      </trkpt>
      <trkpt lat="59.8603561" lon="17.6007042">
        <ele>9.75061</ele>
        <time>2017-12-27T11:05:12Z</time>
      </trkpt>
      <trkpt lat="59.8602877" lon="17.6006272">
        <ele>11.6732</ele>
        <time>2017-12-27T11:05:17Z</time>
      </trkpt>
      <trkpt lat="59.8601496" lon="17.6004976">
        <ele>14.557</ele>
        <time>2017-12-27T11:05:23Z</time>
      </trkpt>
      <trkpt lat="59.8601072" lon="17.6004525">
        <ele>14.0764</ele>
        <time>2017-12-27T11:05:26Z</time>
      </trkpt>
      <trkpt lat="59.860045" lon="17.6004363">
        <ele>15.0377</ele>
        <time>2017-12-27T11:05:29Z</time>
      </trkpt>
      <trkpt lat="59.8600008" lon="17.6004427">
        <ele>15.5184</ele>
        <time>2017-12-27T11:05:31Z</time>
      </trkpt>
      <trkpt lat="59.8599379" lon="17.6004651">
        <ele>15.5184</ele>
        <time>2017-12-27T11:05:35Z</time>
      </trkpt>
      <trkpt lat="59.8599143" lon="17.600483">
        <ele>15.999</ele>
        <time>2017-12-27T11:05:37Z</time>
      </trkpt>
      <trkpt lat="59.8598767" lon="17.6004701">
        <ele>17.4412</ele>
        <time>2017-12-27T11:05:40Z</time>
      </trkpt>
      <trkpt lat="59.8598104" lon="17.6005026">
        <ele>17.9218</ele>
        <time>2017-12-27T11:05:45Z</time>
      </trkpt>
      <trkpt lat="59.8597192" lon="17.6005568">
        <ele>18.4023</ele>
        <time>2017-12-27T11:05:51Z</time>
      </trkpt>
      <trkpt lat="59.8596687" lon="17.6006109">
        <ele>18.8831</ele>
        <time>2017-12-27T11:05:54Z</time>
      </trkpt>
      <trkpt lat="59.8595927" lon="17.6006411">
        <ele>18.4023</ele>
        <time>2017-12-27T11:05:59Z</time>
      </trkpt>
      <trkpt lat="59.8595522" lon="17.6006135">
        <ele>18.8831</ele>
        <time>2017-12-27T11:06:02Z</time>
      </trkpt>
      <trkpt lat="59.8594918" lon="17.6006555">
        <ele>19.8444</ele>
        <time>2017-12-27T11:06:07Z</time>
      </trkpt>
      <trkpt lat="59.8594234" lon="17.6007062">
        <ele>19.8444</ele>
        <time>2017-12-27T11:06:11Z</time>
      </trkpt>
      <trkpt lat="59.8593667" lon="17.6007808">
        <ele>20.325</ele>
        <time>2017-12-27T11:06:15Z</time>
      </trkpt>
      <trkpt lat="59.8592942" lon="17.6008503">
        <ele>20.325</ele>
        <time>2017-12-27T11:06:20Z</time>
      </trkpt>
      <trkpt lat="59.8592762" lon="17.6008803">
        <ele>19.8444</ele>
        <time>2017-12-27T11:06:22Z</time>
      </trkpt>
      <trkpt lat="59.8592436" lon="17.6009322">
        <ele>20.8057</ele>
        <time>2017-12-27T11:06:26Z</time>
      </trkpt>
      <trkpt lat="59.8591535" lon="17.6010477">
        <ele>20.8057</ele>
        <time>2017-12-27T11:06:33Z</time>
      </trkpt>
      <trkpt lat="59.8591145" lon="17.6011518">
        <ele>20.8057</ele>
        <time>2017-12-27T11:06:37Z</time>
      </trkpt>
      <trkpt lat="59.8590282" lon="17.6013513">
        <ele>20.8057</ele>
        <time>2017-12-27T11:06:43Z</time>
      </trkpt>
      <trkpt lat="59.8589471" lon="17.6015102">
        <ele>21.2864</ele>
        <time>2017-12-27T11:06:48Z</time>
      </trkpt>
      <trkpt lat="59.8588852" lon="17.6016411">
        <ele>20.325</ele>
        <time>2017-12-27T11:06:52Z</time>
      </trkpt>
      <trkpt lat="59.8588531" lon="17.6017332">
        <ele>20.8057</ele>
        <time>2017-12-27T11:06:55Z</time>
      </trkpt>
      <trkpt lat="59.8587691" lon="17.6019853">
        <ele>23.209</ele>
        <time>2017-12-27T11:07:03Z</time>
      </trkpt>
      <trkpt lat="59.8586858" lon="17.6022288">
        <ele>24.1703</ele>
        <time>2017-12-27T11:07:10Z</time>
      </trkpt>
      <trkpt lat="59.8586346" lon="17.6024168">
        <ele>23.6896</ele>
        <time>2017-12-27T11:07:15Z</time>
      </trkpt>
      <trkpt lat="59.858578" lon="17.6026556">
        <ele>23.209</ele>
        <time>2017-12-27T11:07:21Z</time>
      </trkpt>
      <trkpt lat="59.8585335" lon="17.6028525">
        <ele>22.7283</ele>
        <time>2017-12-27T11:07:26Z</time>
      </trkpt>
      <trkpt lat="59.8585236" lon="17.6028861">
        <ele>22.2476</ele>
        <time>2017-12-27T11:07:27Z</time>
      </trkpt>
      <trkpt lat="59.8584307" lon="17.6030924">
        <ele>20.8057</ele>
        <time>2017-12-27T11:07:34Z</time>
      </trkpt>
      <trkpt lat="59.8584089" lon="17.6031664">
        <ele>21.767</ele>
        <time>2017-12-27T11:07:36Z</time>
      </trkpt>
      <trkpt lat="59.8583305" lon="17.6033208">
        <ele>21.767</ele>
        <time>2017-12-27T11:07:41Z</time>
      </trkpt>
      <trkpt lat="59.8582289" lon="17.6034794">
        <ele>20.8057</ele>
        <time>2017-12-27T11:07:47Z</time>
      </trkpt>
      <trkpt lat="59.858144" lon="17.6036381">
        <ele>21.767</ele>
        <time>2017-12-27T11:07:52Z</time>
      </trkpt>
      <trkpt lat="59.8580812" lon="17.6037941">
        <ele>22.7283</ele>
        <time>2017-12-27T11:07:56Z</time>
      </trkpt>
      <trkpt lat="59.8579871" lon="17.603762">
        <ele>23.6896</ele>
        <time>2017-12-27T11:08:02Z</time>
      </trkpt>
      <trkpt lat="59.8579751" lon="17.6037243">
        <ele>24.1703</ele>
        <time>2017-12-27T11:08:03Z</time>
      </trkpt>
      <trkpt lat="59.8579" lon="17.6034573">
        <ele>24.1703</ele>
        <time>2017-12-27T11:08:10Z</time>
      </trkpt>
      <trkpt lat="59.8578217" lon="17.6034689">
        <ele>24.1703</ele>
        <time>2017-12-27T11:08:15Z</time>
      </trkpt>
      <trkpt lat="59.8578036" lon="17.6034923">
        <ele>24.1703</ele>
        <time>2017-12-27T11:08:16Z</time>
      </trkpt>
      <trkpt lat="59.8576868" lon="17.6036231">
        <ele>25.1317</ele>
        <time>2017-12-27T11:08:22Z</time>
      </trkpt>
      <trkpt lat="59.8576316" lon="17.6037125">
        <ele>25.6123</ele>
        <time>2017-12-27T11:08:25Z</time>
      </trkpt>
      <trkpt lat="59.8575631" lon="17.6038385">
        <ele>26.0929</ele>
        <time>2017-12-27T11:08:29Z</time>
      </trkpt>
      <trkpt lat="59.85752" lon="17.6039108">
        <ele>28.0155</ele>
        <time>2017-12-27T11:08:32Z</time>
      </trkpt>
      <trkpt lat="59.8574198" lon="17.6040663">
        <ele>28.9769</ele>
        <time>2017-12-27T11:08:38Z</time>
      </trkpt>
      <trkpt lat="59.8573109" lon="17.6042537">
        <ele>30.4188</ele>
        <time>2017-12-27T11:08:44Z</time>
      </trkpt>
      <trkpt lat="59.8572075" lon="17.6044494">
        <ele>29.4575</ele>
        <time>2017-12-27T11:08:50Z</time>
      </trkpt>
      <trkpt lat="59.8571291" lon="17.6046349">
        <ele>26.5736</ele>
        <time>2017-12-27T11:08:55Z</time>
      </trkpt>
      <trkpt lat="59.8570716" lon="17.6048285">
        <ele>24.651</ele>
        <time>2017-12-27T11:09:00Z</time>
      </trkpt>
      <trkpt lat="59.8569769" lon="17.6049852">
        <ele>23.209</ele>
        <time>2017-12-27T11:09:05Z</time>
      </trkpt>
      <trkpt lat="59.8568561" lon="17.6049595">
        <ele>24.651</ele>
        <time>2017-12-27T11:09:10Z</time>
      </trkpt>
      <trkpt lat="59.8567889" lon="17.6048987">
        <ele>25.6123</ele>
        <time>2017-12-27T11:09:13Z</time>
      </trkpt>
      <trkpt lat="59.8566779" lon="17.6047963">
        <ele>26.5736</ele>
        <time>2017-12-27T11:09:19Z</time>
      </trkpt>
      <trkpt lat="59.8566623" lon="17.6047813">
        <ele>27.5349</ele>
        <time>2017-12-27T11:09:20Z</time>
      </trkpt>
      <trkpt lat="59.8565374" lon="17.604763">
        <ele>28.4962</ele>
        <time>2017-12-27T11:09:26Z</time>
      </trkpt>
      <trkpt lat="59.8564158" lon="17.6047725">
        <ele>28.9769</ele>
        <time>2017-12-27T11:09:31Z</time>
      </trkpt>
      <trkpt lat="59.8562749" lon="17.6047976">
        <ele>29.4575</ele>
        <time>2017-12-27T11:09:37Z</time>
      </trkpt>
      <trkpt lat="59.8562034" lon="17.6047917">
        <ele>30.4188</ele>
        <time>2017-12-27T11:09:40Z</time>
      </trkpt>
      <trkpt lat="59.8561439" lon="17.604608">
        <ele>29.9381</ele>
        <time>2017-12-27T11:09:45Z</time>
      </trkpt>
      <trkpt lat="59.8561382" lon="17.604562">
        <ele>30.4188</ele>
        <time>2017-12-27T11:09:46Z</time>
      </trkpt>
      <trkpt lat="59.8560774" lon="17.6043524">
        <ele>29.9381</ele>
        <time>2017-12-27T11:09:51Z</time>
      </trkpt>
      <trkpt lat="59.856019" lon="17.6041273">
        <ele>29.4575</ele>
        <time>2017-12-27T11:09:56Z</time>
      </trkpt>
      <trkpt lat="59.8559955" lon="17.604036">
        <ele>28.9769</ele>
        <time>2017-12-27T11:09:58Z</time>
      </trkpt>
      <trkpt lat="59.8559273" lon="17.6038041">
        <ele>28.4962</ele>
        <time>2017-12-27T11:10:03Z</time>
      </trkpt>
      <trkpt lat="59.8558907" lon="17.603619">
        <ele>28.9769</ele>
        <time>2017-12-27T11:10:07Z</time>
      </trkpt>
      <trkpt lat="59.8558543" lon="17.6034865">
        <ele>29.4575</ele>
        <time>2017-12-27T11:10:10Z</time>
      </trkpt>
      <trkpt lat="59.8557762" lon="17.6031714">
        <ele>28.9769</ele>
        <time>2017-12-27T11:10:17Z</time>
      </trkpt>
      <trkpt lat="59.8557329" lon="17.602826">
        <ele>30.4188</ele>
        <time>2017-12-27T11:10:24Z</time>
      </trkpt>
      <trkpt lat="59.8557191" lon="17.6027328">
        <ele>30.8995</ele>
        <time>2017-12-27T11:10:26Z</time>
      </trkpt>
      <trkpt lat="59.855672" lon="17.6024412">
        <ele>31.3801</ele>
        <time>2017-12-27T11:10:32Z</time>
      </trkpt>
      <trkpt lat="59.8556666" lon="17.6023417">
        <ele>31.8607</ele>
        <time>2017-12-27T11:10:34Z</time>
      </trkpt>
      <trkpt lat="59.8556593" lon="17.6020317">
        <ele>32.8223</ele>
        <time>2017-12-27T11:10:40Z</time>
      </trkpt>
      <trkpt lat="59.8556538" lon="17.6017777">
        <ele>33.3029</ele>
        <time>2017-12-27T11:10:45Z</time>
      </trkpt>
      <trkpt lat="59.8556436" lon="17.6015228">
        <ele>34.2642</ele>
        <time>2017-12-27T11:10:50Z</time>
      </trkpt>
      <trkpt lat="59.8556259" lon="17.6012195">
        <ele>34.2642</ele>
        <time>2017-12-27T11:10:56Z</time>
      </trkpt>
      <trkpt lat="59.8556123" lon="17.6009714">
        <ele>31.8607</ele>
        <time>2017-12-27T11:11:01Z</time>
      </trkpt>
      <trkpt lat="59.8555982" lon="17.6006674">
        <ele>30.8995</ele>
        <time>2017-12-27T11:11:07Z</time>
      </trkpt>
      <trkpt lat="59.8555626" lon="17.6003599">
        <ele>29.4575</ele>
        <time>2017-12-27T11:11:13Z</time>
      </trkpt>
      <trkpt lat="59.8555092" lon="17.600049">
        <ele>29.4575</ele>
        <time>2017-12-27T11:11:19Z</time>
      </trkpt>
      <trkpt lat="59.855448" lon="17.5997409">
        <ele>29.9381</ele>
        <time>2017-12-27T11:11:25Z</time>
      </trkpt>
      <trkpt lat="59.8554284" lon="17.5996451">
        <ele>29.4575</ele>
        <time>2017-12-27T11:11:27Z</time>
      </trkpt>
      <trkpt lat="59.8553922" lon="17.5993961">
        <ele>29.9381</ele>
        <time>2017-12-27T11:11:32Z</time>
      </trkpt>
      <trkpt lat="59.855342" lon="17.599086">
        <ele>28.0155</ele>
        <time>2017-12-27T11:11:38Z</time>
      </trkpt>
      <trkpt lat="59.8552701" lon="17.5987897">
        <ele>25.6123</ele>
        <time>2017-12-27T11:11:44Z</time>
      </trkpt>
      <trkpt lat="59.855198" lon="17.5984411">
        <ele>24.651</ele>
        <time>2017-12-27T11:11:51Z</time>
      </trkpt>
      <trkpt lat="59.8551317" lon="17.598094">
        <ele>24.651</ele>
        <time>2017-12-27T11:11:58Z</time>
      </trkpt>
      <trkpt lat="59.8550918" lon="17.5978561">
        <ele>24.651</ele>
        <time>2017-12-27T11:12:03Z</time>
      </trkpt>
      <trkpt lat="59.855055" lon="17.597609">
        <ele>24.651</ele>
        <time>2017-12-27T11:12:08Z</time>
      </trkpt>
      <trkpt lat="59.8550123" lon="17.597377">
        <ele>24.651</ele>
        <time>2017-12-27T11:12:13Z</time>
      </trkpt>
      <trkpt lat="59.8549929" lon="17.5972788">
        <ele>24.1703</ele>
        <time>2017-12-27T11:12:15Z</time>
      </trkpt>
      <trkpt lat="59.854943" lon="17.5970875">
        <ele>23.209</ele>
        <time>2017-12-27T11:12:19Z</time>
      </trkpt>
      <trkpt lat="59.8548934" lon="17.596798">
        <ele>22.7283</ele>
        <time>2017-12-27T11:12:25Z</time>
      </trkpt>
      <trkpt lat="59.8548627" lon="17.5966038">
        <ele>21.767</ele>
        <time>2017-12-27T11:12:29Z</time>
      </trkpt>
      <trkpt lat="59.8548389" lon="17.5964513">
        <ele>21.767</ele>
        <time>2017-12-27T11:12:33Z</time>
      </trkpt>
      <trkpt lat="59.854748" lon="17.5964871">
        <ele>21.767</ele>
        <time>2017-12-27T11:12:37Z</time>
      </trkpt>
      <trkpt lat="59.8545536" lon="17.5966575">
        <ele>22.2476</ele>
        <time>2017-12-27T11:12:45Z</time>
      </trkpt>
      <trkpt lat="59.8543815" lon="17.596787">
        <ele>22.2476</ele>
        <time>2017-12-27T11:12:52Z</time>
      </trkpt>
      <trkpt lat="59.8542245" lon="17.5969006">
        <ele>21.767</ele>
        <time>2017-12-27T11:12:58Z</time>
      </trkpt>
      <trkpt lat="59.8538707" lon="17.5969794">
        <ele>20.325</ele>
        <time>2017-12-27T11:13:04Z</time>
      </trkpt>
      <trkpt lat="59.853886" lon="17.5970148">
        <ele>18.8831</ele>
        <time>2017-12-27T11:13:06Z</time>
      </trkpt>
      <trkpt lat="59.8539137" lon="17.5970869">
        <ele>17.9218</ele>
        <time>2017-12-27T11:13:08Z</time>
      </trkpt>
      <trkpt lat="59.853838" lon="17.5973485">
        <ele>18.4023</ele>
        <time>2017-12-27T11:13:16Z</time>
      </trkpt>
      <trkpt lat="59.8538174" lon="17.5976009">
        <ele>19.3638</ele>
        <time>2017-12-27T11:13:22Z</time>
      </trkpt>
      <trkpt lat="59.8538168" lon="17.5979053">
        <ele>21.767</ele>
        <time>2017-12-27T11:13:29Z</time>
      </trkpt>
      <trkpt lat="59.8538076" lon="17.5981698">
        <ele>24.651</ele>
        <time>2017-12-27T11:13:35Z</time>
      </trkpt>
      <trkpt lat="59.8537634" lon="17.5984844">
        <ele>26.0929</ele>
        <time>2017-12-27T11:13:42Z</time>
      </trkpt>
      <trkpt lat="59.8536584" lon="17.5986588">
        <ele>26.5736</ele>
        <time>2017-12-27T11:13:48Z</time>
      </trkpt>
      <trkpt lat="59.853526" lon="17.5987058">
        <ele>26.5736</ele>
        <time>2017-12-27T11:13:54Z</time>
      </trkpt>
      <trkpt lat="59.8533606" lon="17.5987954">
        <ele>28.0155</ele>
        <time>2017-12-27T11:14:02Z</time>
      </trkpt>
      <trkpt lat="59.853214" lon="17.5989558">
        <ele>27.5349</ele>
        <time>2017-12-27T11:14:09Z</time>
      </trkpt>
      <trkpt lat="59.8530751" lon="17.5990466">
        <ele>26.5736</ele>
        <time>2017-12-27T11:14:15Z</time>
      </trkpt>
      <trkpt lat="59.8529146" lon="17.5991746">
        <ele>25.1317</ele>
        <time>2017-12-27T11:14:22Z</time>
      </trkpt>
      <trkpt lat="59.8527914" lon="17.5993094">
        <ele>25.1317</ele>
        <time>2017-12-27T11:14:28Z</time>
      </trkpt>
      <trkpt lat="59.8526806" lon="17.5993625">
        <ele>26.0929</ele>
        <time>2017-12-27T11:14:33Z</time>
      </trkpt>
      <trkpt lat="59.8525621" lon="17.5993239">
        <ele>27.0543</ele>
        <time>2017-12-27T11:14:38Z</time>
      </trkpt>
      <trkpt lat="59.8524257" lon="17.5993125">
        <ele>28.4962</ele>
        <time>2017-12-27T11:14:44Z</time>
      </trkpt>
      <trkpt lat="59.8522337" lon="17.5993445">
        <ele>30.4188</ele>
        <time>2017-12-27T11:14:52Z</time>
      </trkpt>
      <trkpt lat="59.8520633" lon="17.5993704">
        <ele>31.3801</ele>
        <time>2017-12-27T11:14:59Z</time>
      </trkpt>
      <trkpt lat="59.8519423" lon="17.5993311">
        <ele>31.3801</ele>
        <time>2017-12-27T11:15:04Z</time>
      </trkpt>
      <trkpt lat="59.8518294" lon="17.5992216">
        <ele>31.8607</ele>
        <time>2017-12-27T11:15:09Z</time>
      </trkpt>
      <trkpt lat="59.8517014" lon="17.5990556">
        <ele>31.3801</ele>
        <time>2017-12-27T11:15:15Z</time>
      </trkpt>
      <trkpt lat="59.8515605" lon="17.5989779">
        <ele>30.8995</ele>
        <time>2017-12-27T11:15:21Z</time>
      </trkpt>
      <trkpt lat="59.8515377" lon="17.5989741">
        <ele>30.8995</ele>
        <time>2017-12-27T11:15:22Z</time>
      </trkpt>
      <trkpt lat="59.8514848" lon="17.5991265">
        <ele>28.9769</ele>
        <time>2017-12-27T11:15:27Z</time>
      </trkpt>
      <trkpt lat="59.8514733" lon="17.5994976">
        <ele>29.9381</ele>
        <time>2017-12-27T11:15:34Z</time>
      </trkpt>
      <trkpt lat="59.8514599" lon="17.5997496">
        <ele>30.8995</ele>
        <time>2017-12-27T11:15:39Z</time>
      </trkpt>
      <trkpt lat="59.8514123" lon="17.6000239">
        <ele>30.8995</ele>
        <time>2017-12-27T11:15:45Z</time>
      </trkpt>
      <trkpt lat="59.8513138" lon="17.6003111">
        <ele>30.4188</ele>
        <time>2017-12-27T11:15:52Z</time>
      </trkpt>
      <trkpt lat="59.8512347" lon="17.6004987">
        <ele>29.9381</ele>
        <time>2017-12-27T11:15:57Z</time>
      </trkpt>
      <trkpt lat="59.8511244" lon="17.6007804">
        <ele>29.9381</ele>
        <time>2017-12-27T11:16:04Z</time>
      </trkpt>
      <trkpt lat="59.8510663" lon="17.6009312">
        <ele>29.4575</ele>
        <time>2017-12-27T11:16:08Z</time>
      </trkpt>
      <trkpt lat="59.8510876" lon="17.6011078">
        <ele>28.9769</ele>
        <time>2017-12-27T11:16:12Z</time>
      </trkpt>
      <trkpt lat="59.8512082" lon="17.6013851">
        <ele>29.4575</ele>
        <time>2017-12-27T11:16:19Z</time>
      </trkpt>
      <trkpt lat="59.8512746" lon="17.6016703">
        <ele>28.0155</ele>
        <time>2017-12-27T11:16:25Z</time>
      </trkpt>
      <trkpt lat="59.8512697" lon="17.6019864">
        <ele>27.5349</ele>
        <time>2017-12-27T11:16:31Z</time>
      </trkpt>
      <trkpt lat="59.8512109" lon="17.6022173">
        <ele>27.0543</ele>
        <time>2017-12-27T11:16:36Z</time>
      </trkpt>
      <trkpt lat="59.8511071" lon="17.6023677">
        <ele>25.1317</ele>
        <time>2017-12-27T11:16:41Z</time>
      </trkpt>
      <trkpt lat="59.8510736" lon="17.6025436">
        <ele>25.1317</ele>
        <time>2017-12-27T11:16:45Z</time>
      </trkpt>
      <trkpt lat="59.8510219" lon="17.6028176">
        <ele>25.1317</ele>
        <time>2017-12-27T11:16:51Z</time>
      </trkpt>
      <trkpt lat="59.8509554" lon="17.6030958">
        <ele>25.1317</ele>
        <time>2017-12-27T11:16:57Z</time>
      </trkpt>
      <trkpt lat="59.8508536" lon="17.6033947">
        <ele>23.209</ele>
        <time>2017-12-27T11:17:04Z</time>
      </trkpt>
      <trkpt lat="59.8507747" lon="17.6035933">
        <ele>23.209</ele>
        <time>2017-12-27T11:17:09Z</time>
      </trkpt>
      <trkpt lat="59.8507079" lon="17.603803">
        <ele>22.7283</ele>
        <time>2017-12-27T11:17:14Z</time>
      </trkpt>
      <trkpt lat="59.8506922" lon="17.6038398">
        <ele>23.209</ele>
        <time>2017-12-27T11:17:15Z</time>
      </trkpt>
      <trkpt lat="59.8506206" lon="17.6038016">
        <ele>22.7283</ele>
        <time>2017-12-27T11:17:19Z</time>
      </trkpt>
      <trkpt lat="59.8504969" lon="17.6035781">
        <ele>22.2476</ele>
        <time>2017-12-27T11:17:26Z</time>
      </trkpt>
      <trkpt lat="59.8504022" lon="17.6034062">
        <ele>22.2476</ele>
        <time>2017-12-27T11:17:31Z</time>
      </trkpt>
      <trkpt lat="59.8503122" lon="17.603268">
        <ele>23.209</ele>
        <time>2017-12-27T11:17:36Z</time>
      </trkpt>
      <trkpt lat="59.8502696" lon="17.603209">
        <ele>23.209</ele>
        <time>2017-12-27T11:17:38Z</time>
      </trkpt>
      <trkpt lat="59.8501536" lon="17.6030431">
        <ele>24.1703</ele>
        <time>2017-12-27T11:17:44Z</time>
      </trkpt>
      <trkpt lat="59.850077" lon="17.6029524">
        <ele>24.651</ele>
        <time>2017-12-27T11:17:48Z</time>
      </trkpt>
      <trkpt lat="59.8499825" lon="17.6031577">
        <ele>21.767</ele>
        <time>2017-12-27T11:17:54Z</time>
      </trkpt>
      <trkpt lat="59.8498987" lon="17.6033213">
        <ele>19.8444</ele>
        <time>2017-12-27T11:17:59Z</time>
      </trkpt>
      <trkpt lat="59.8498055" lon="17.6034335">
        <ele>19.8444</ele>
        <time>2017-12-27T11:18:03Z</time>
      </trkpt>
      <trkpt lat="59.8498462" lon="17.6035684">
        <ele>18.8831</ele>
        <time>2017-12-27T11:18:07Z</time>
      </trkpt>
      <trkpt lat="59.8498905" lon="17.6037505">
        <ele>18.8831</ele>
        <time>2017-12-27T11:18:12Z</time>
      </trkpt>
      <trkpt lat="59.8498873" lon="17.6039577">
        <ele>21.767</ele>
        <time>2017-12-27T11:18:18Z</time>
      </trkpt>
      <trkpt lat="59.849878" lon="17.6039484">
        <ele>23.6896</ele>
        <time>2017-12-27T11:18:22Z</time>
      </trkpt>
      <trkpt lat="59.8498612" lon="17.6038206">
        <ele>35.7061</ele>
        <time>2017-12-27T11:18:28Z</time>
      </trkpt>
      <trkpt lat="59.849863" lon="17.6037595">
        <ele>48.684</ele>
        <time>2017-12-27T11:18:35Z</time>
      </trkpt>
      <trkpt lat="59.8498524" lon="17.6037243">
        <ele>47.7225</ele>
        <time>2017-12-27T11:18:41Z</time>
      </trkpt>
      <trkpt lat="59.8498372" lon="17.6037474">
        <ele>49.1646</ele>
        <time>2017-12-27T11:18:44Z</time>
      </trkpt>
      <trkpt lat="59.8498121" lon="17.6037434">
        <ele>47.2418</ele>
        <time>2017-12-27T11:18:45Z</time>
      </trkpt>
    </trkseg>
  </trk>
</gpx>